Impacts TAF Board INFO
FOR SITUATIONAL AWARENESS. NOT TO BE USED FOR FLIGHT PLANNING PURPOSES.
IDs:

KDFW - Dallas-Ft Worth Intl, TX, US

Issued at 2338 UTC 26 Jun 2017
Updated at 0021 UTC 27 Jun 2017
Potential Impact None Slight Moderate High
Time2353Z 27/01Z 27/02Z 27/03Z 27/04Z 27/05Z 27/06Z 27/07Z 27/08Z 27/09Z 27/10Z 27/11Z 27/12Z 27/13Z>>
Type OBS PRVL PRVL PRVL PRVL PRVL PRVL PRVL PRVL PRVL PRVL PRVL PRVL PRVL
VIS 10 >6 >6 >6 >6 >6 >6 >6 >6 >6 >6 >6 >6 >6
CIG 45 300 300 300 300 300 300 300 300 300 300 300 300 300
Cover OVC BKN BKN BKN BKN BKN BKN BKN BKN BKN BKN BKN BKN BKN
FltCat VFR VFR VFR VFR VFR VFR VFR VFR VFR VFR VFR VFR VFR VFR
WX -- -- -- -- -- -- -- -- -- -- -- -- -- --
WDir 110 110 110 110 110 110 110 110 110 110 110 110 110 110
WSpd 8 6 6 6 6 6 6 6 6 6 6 6 6 6
WGst -- -- -- -- -- -- -- -- -- -- -- -- -- --

Raw TAF
KDFW 262338Z 2700/2806 11006KT P6SM SCT035 BKN300
  FM271800 14009KT P6SM BKN045 BKN300


Raw METAR
KDFW 262353Z 11008KT 10SM BKN045 BKN250 OVC300 29/21 A2999 RMK AO2 SLP147 T02940206 10311 20278 56017
KDFW 262253Z 12009KT 10SM SCT040 SCT060TCU BKN300 30/21 A3000 RMK AO2 SLP149 TCU SE-S T03000211
KDFW 262153Z 06004KT 10SM FEW036 SCT060 BKN210 BKN240 31/21 A3001 RMK AO2 SLP155 T03060206

METAR Board
Radar Display
Forecast Discussion

FOR SITUATIONAL AWARENESS. NOT TO BE USED FOR FLIGHT PLANNING PURPOSES.

Page loaded:  00:21 UTC  |   05:21 PM Pacific  |   06:21 PM Mountain  |   07:21 PM Central  |   08:21 PM Eastern

 

ADVISORIES

FORECASTS

FORECASTS

OBSERVATIONS

USER TOOLS

ABOUT US